메인 페이지
METAR-TAF:

METAR-TAF

공항 :

런던 시티 공항

런던, 잉글랜드

위도: 51-30N, 경도: 000-03E, 고도: 5m

현재 날씨관측

예보는 19분 전, 20:20시(UTC)에 발표되었습니다.
남남서10kt, 순간 최대 풍속 21kt풍과 서남서풍을 오가는
온도 13°C
습도 67%
기압 1007 hPa
시정 10km 이상
고도 2100ft 상공 구름 보통
고도 2800ft 상공 구름 많음
고도 3400ft 상공 구름 많음

METAR: EGLC 132020Z AUTO 21010G21KT 170V240 9999 SCT021 BKN028 BKN034 13/07 Q1007

시각: 21:39 (20:39 UTC)

예보

예보는 3 시간 40분 전, 16:59시(UTC)에 발표되었습니다.
예보 대상 시간: 13일 18시부터 13일 21시까지 (UTC)
10kt
시정 10km 이상
고도 3000ft 상공 구름 보통
일시적
13일 18시부터 13일 21시까지 (UTC)
시정: 6000m
확률 40% :
일시적
13일 18시부터 13일 21시까지 (UTC)
18kt, 순간 최대 풍속 28kt
시정: 4000m
강한비, 비, 이슬비
일시적
13일 19시부터 13일 21시까지 (UTC)
고도 900ft 상공 구름 많음

TAF: EGLC 131659Z 1318/1321 18010KT 9999 SCT030 TEMPO 1318/1321 6000 RA PROB40 TEMPO 1318/1321 18018G28KT 4000 +RA RADZ TEMPO 1319/1321 BKN009

4,000개 이상의 공항 관측 자료 및 예보 (METAR 및 TAF 보고).

지도상에서 검색 가능한 기상관측소가 노란 점과 빨간 점으로 표시되어 있습니다.

기상관측소 명을 보려면 표시 위로 마우스를 이동하세요.

날씨 관측과 예보를 보려면 클릭하세요.

지도 변경 : 확대하려면 엑스 표시가 있는 녹색 버튼, 축소하려면 빼기 표시가 있는 녹색 버튼, 다음 페이지의 지도를 보려면 녹색 화살표를 클릭하세요.


METAR-TAF: